Terminal Aerodrome Forecast
Issued by NWS

Home | Current Version | Previous Version | Text Only | Print | Product List | Glossary On
Versions: 1 2 3 4 5 6 7 8 9 10 11 12 13
271
FTUS42 KTBW 132321
TAFPIE
TAF
KPIE 132321Z 1400/1424 34009KT P6SM SKC
     FM140400 02010G15KT P6SM SKC
     FM141400 06008KT P6SM SKC
     FM141900 10007KT P6SM FEW250=

USA.gov is the U.S. government's official web portal to all federal, state and local government web resources and services.